createdAt,value
2017-09-20T00:00:32.610Z,97.22
2017-09-20T00:01:32.908Z,97.36
2017-09-20T00:02:32.900Z,97.31
2017-09-20T00:03:32.893Z,97.17
2017-09-20T00:04:32.890Z,97.08
2017-09-20T00:05:32.873Z,97.17
2017-09-20T00:06:32.871Z,97.08
2017-09-20T00:07:32.861Z,96.98
2017-09-20T00:08:32.849Z,97.27
2017-09-20T00:09:32.843Z,97.08
2017-09-20T00:10:32.833Z,97.36
2017-09-20T00:11:32.823Z,97.17
2017-09-20T00:12:32.505Z,97.17
2017-09-20T00:13:32.803Z,96.89
2017-09-20T00:14:32.799Z,97.17
2017-09-20T00:15:32.788Z,97.36
2017-09-20T00:16:32.787Z,96.98
2017-09-20T00:17:32.769Z,97.08
2017-09-20T00:18:32.761Z,97.17
2017-09-20T00:19:32.752Z,97.27
2017-09-20T00:20:32.744Z,96.98
2017-09-20T00:21:32.733Z,97.17
2017-09-20T00:22:32.722Z,96.98
2017-09-20T00:23:32.713Z,97.17
2017-09-20T00:24:32.734Z,97.08
2017-09-20T00:25:32.700Z,97.27
2017-09-20T00:26:32.688Z,97.17
2017-09-20T00:27:32.683Z,97.36
2017-09-20T00:28:32.671Z,96.98
2017-09-20T00:29:32.659Z,97.27
2017-09-20T00:30:32.654Z,97.08
2017-09-20T00:31:32.641Z,97.08
2017-09-20T00:32:32.633Z,97.08
2017-09-20T00:33:32.624Z,97.17
2017-09-20T00:34:32.618Z,97.17
2017-09-20T00:35:32.607Z,97.17
2017-09-20T00:36:32.598Z,96.98
2017-09-20T00:37:32.588Z,97.36
2017-09-20T00:38:32.584Z,97.08
2017-09-20T00:39:32.572Z,96.98
2017-09-20T00:40:32.252Z,96.98
2017-09-20T00:41:32.553Z,97.27
2017-09-20T00:42:32.541Z,97.08
2017-09-20T00:43:32.538Z,97.17
2017-09-20T00:44:32.526Z,96.89
2017-09-20T00:45:32.516Z,97.17
2017-09-20T00:46:32.508Z,96.98
2017-09-20T00:47:32.500Z,97.46
2017-09-20T00:48:32.491Z,97.36
2017-09-20T00:49:32.481Z,97.08
2017-09-20T00:50:32.472Z,97.17
2017-09-20T00:51:32.461Z,97.17
2017-09-20T00:52:32.451Z,96.98
2017-09-20T00:53:32.445Z,97.27
2017-09-20T00:54:32.431Z,97.17
2017-09-20T00:55:32.426Z,97.27
2017-09-20T00:56:32.447Z,97.17
2017-09-20T00:57:32.408Z,96.98
2017-09-20T00:58:32.397Z,97.17
2017-09-20T00:59:32.388Z,97.17
2017-09-20T01:00:32.377Z,97.17
2017-09-20T01:01:32.370Z,97.13
2017-09-20T01:02:32.362Z,97.13
2017-09-20T01:03:32.352Z,97.17
2017-09-20T01:04:32.033Z,96.84
2017-09-20T01:05:32.330Z,97.17
2017-09-20T01:06:32.320Z,97.17
2017-09-20T01:07:32.312Z,97.27
2017-09-20T01:08:32.304Z,97.41
2017-09-20T01:09:32.296Z,97.08
2017-09-20T01:10:32.285Z,97.27
2017-09-20T01:11:32.278Z,97.22
2017-09-20T01:12:32.266Z,97.22
2017-09-20T01:13:32.259Z,97.17
2017-09-20T01:14:32.250Z,96.84
2017-09-20T01:15:32.243Z,96.84
2017-09-20T01:16:32.231Z,96.84
2017-09-20T01:17:32.219Z,96.98
2017-09-20T01:18:32.213Z,97.13
2017-09-20T01:19:32.199Z,97.31
2017-09-20T01:20:32.192Z,97.03
2017-09-20T01:21:32.181Z,97.17
2017-09-20T01:22:31.865Z,97.46
2017-09-20T01:23:31.854Z,97.46
2017-09-20T01:24:31.845Z,97.17
2017-09-20T01:25:31.838Z,97.17
2017-09-20T01:26:31.827Z,97.46
2017-09-20T01:27:32.128Z,97.03
2017-09-20T01:28:32.115Z,97.03
2017-09-20T01:29:32.109Z,97.55
2017-09-20T01:30:32.101Z,97.41
2017-09-20T01:31:31.783Z,96.98
2017-09-20T01:32:32.080Z,97.17
2017-09-20T01:33:32.069Z,97.03
2017-09-20T01:34:32.061Z,97.03
2017-09-20T01:35:32.054Z,96.94
2017-09-20T01:36:32.043Z,97.27
2017-09-20T01:37:32.033Z,97.5
2017-09-20T01:38:32.023Z,97.22
2017-09-20T01:39:32.014Z,96.84
2017-09-20T01:40:32.010Z,97.13
2017-09-20T01:41:31.995Z,97.03
2017-09-20T01:42:31.988Z,97.5
2017-09-20T01:43:31.980Z,97.13
2017-09-20T01:44:31.970Z,97.41
2017-09-20T01:45:31.959Z,97.41
2017-09-20T01:46:31.955Z,97.31
2017-09-20T01:47:31.938Z,97.41
2017-09-20T01:48:31.930Z,97.03
2017-09-20T01:49:31.922Z,97.31
2017-09-20T01:50:31.911Z,97.03
2017-09-20T01:51:31.902Z,97.41
2017-09-20T01:52:31.892Z,97.13
2017-09-20T01:53:31.886Z,97.03
2017-09-20T01:54:31.878Z,97.03
2017-09-20T01:55:31.866Z,97.13
2017-09-20T01:56:31.855Z,97.5
2017-09-20T01:57:31.844Z,97.03
2017-09-20T01:58:31.839Z,97.03
2017-09-20T01:59:31.827Z,97.79
2017-09-20T02:00:31.819Z,97.31
2017-09-20T02:01:31.499Z,97.88
2017-09-20T02:02:31.798Z,97.6
2017-09-20T02:03:31.481Z,97.13
2017-09-20T02:04:31.779Z,97.03
2017-09-20T02:05:31.771Z,97.5
2017-09-20T02:06:31.759Z,97.03
2017-09-20T02:07:31.754Z,97.69
2017-09-20T02:08:31.747Z,97.13
2017-09-20T02:09:31.730Z,97.41
2017-09-20T02:10:31.725Z,97.13
2017-09-20T02:11:31.405Z,97.13
2017-09-20T02:12:31.705Z,97.03
2017-09-20T02:13:31.694Z,97.41
2017-09-20T02:14:31.683Z,97.03
2017-09-20T02:15:31.672Z,97.5
2017-09-20T02:16:31.666Z,96.94
2017-09-20T02:17:31.659Z,96.94
2017-09-20T02:18:31.647Z,97.31
2017-09-20T02:19:31.638Z,97.5
2017-09-20T02:20:31.629Z,97.41
2017-09-20T02:21:31.621Z,97.6
2017-09-20T02:22:31.621Z,97.13
2017-09-20T02:23:31.632Z,97.41
2017-09-20T02:24:31.592Z,97.41
2017-09-20T02:25:31.578Z,97.88
2017-09-20T02:26:31.571Z,97.79
2017-09-20T02:27:31.564Z,97.6
2017-09-20T02:28:31.554Z,97.03
2017-09-20T02:29:31.545Z,97.88
2017-09-20T02:30:31.536Z,97.31
2017-09-20T02:31:31.521Z,97.79
2017-09-20T02:32:31.514Z,97.79
2017-09-20T02:33:31.504Z,97.5
2017-09-20T02:34:31.493Z,97.31
2017-09-20T02:35:31.484Z,97.69
2017-09-20T02:36:31.474Z,97.88
2017-09-20T02:37:31.470Z,97.88
2017-09-20T02:38:31.454Z,97.41
2017-09-20T02:39:31.445Z,97.5
2017-09-20T02:40:31.439Z,97.5
2017-09-20T02:41:31.425Z,97.03
2017-09-20T02:42:31.424Z,97.79
2017-09-20T02:43:31.409Z,97.6
2017-09-20T02:44:31.407Z,97.03
2017-09-20T02:45:31.081Z,97.13
2017-09-20T02:46:31.382Z,97.03
2017-09-20T02:47:31.060Z,97.5
2017-09-20T02:48:31.362Z,97.31
2017-09-20T02:49:31.350Z,97.13
2017-09-20T02:50:31.342Z,97.13
2017-09-20T02:51:31.332Z,97.6
2017-09-20T02:52:31.326Z,97.5
2017-09-20T02:53:31.312Z,97.22
2017-09-20T02:54:31.305Z,97.03
2017-09-20T02:55:31.292Z,97.41
2017-09-20T02:56:31.282Z,97.45
2017-09-20T02:57:30.962Z,97.22
2017-09-20T02:58:31.264Z,97.13
2017-09-20T02:59:30.942Z,97.22
2017-09-20T03:00:31.245Z,97.5
2017-09-20T03:01:31.237Z,97.41
2017-09-20T03:02:31.224Z,97.41
2017-09-20T03:03:31.217Z,97.64
2017-09-20T03:04:31.243Z,97.74
2017-09-20T03:05:31.201Z,97.79
2017-09-20T03:06:30.876Z,97.45
2017-09-20T03:07:30.866Z,97.74
2017-09-20T03:08:31.200Z,97.31
2017-09-20T03:09:31.158Z,97.41
2017-09-20T03:10:31.148Z,97.64
2017-09-20T03:11:31.139Z,97.55
2017-09-20T03:12:31.128Z,97.45
2017-09-20T03:13:31.120Z,97.5
2017-09-20T03:14:31.105Z,97.74
2017-09-20T03:15:31.103Z,97.74
2017-09-20T03:16:31.088Z,97.79
2017-09-20T03:17:31.079Z,97.55
2017-09-20T03:18:31.067Z,97.45
2017-09-20T03:19:31.062Z,97.36
2017-09-20T03:20:31.049Z,97.27
2017-09-20T03:21:31.040Z,97.6
2017-09-20T03:22:31.033Z,97.64
2017-09-20T03:23:31.019Z,97.55
2017-09-20T03:24:31.012Z,97.55
2017-09-20T03:25:31.004Z,97.41
2017-09-20T03:26:30.990Z,97.64
2017-09-20T03:27:30.987Z,97.55
2017-09-20T03:28:30.972Z,97.74
2017-09-20T03:29:30.963Z,97.64
2017-09-20T03:30:30.954Z,97.64
2017-09-20T03:31:30.952Z,97.36
2017-09-20T03:32:30.934Z,97.64
2017-09-20T03:33:30.921Z,97.55
2017-09-20T03:34:30.911Z,97.45
2017-09-20T03:35:30.903Z,97.55
2017-09-20T03:36:30.893Z,97.55
2017-09-20T03:37:30.573Z,97.36
2017-09-20T03:38:30.872Z,97.55
2017-09-20T03:39:30.863Z,97.55
2017-09-20T03:40:30.857Z,97.64
2017-09-20T03:41:30.539Z,97.93
2017-09-20T03:42:30.835Z,97.36
2017-09-20T03:43:30.826Z,97.6
2017-09-20T03:44:30.813Z,97.55
2017-09-20T03:45:30.813Z,97.36
2017-09-20T03:46:30.796Z,97.45
2017-09-20T03:47:30.786Z,97.55
2017-09-20T03:48:30.775Z,97.55
2017-09-20T03:49:30.768Z,97.64
2017-09-20T03:50:30.758Z,97.45
2017-09-20T03:51:30.755Z,97.55
2017-09-20T03:52:30.738Z,97.36
2017-09-20T03:53:30.420Z,97.36
2017-09-20T03:54:30.717Z,97.64
2017-09-20T03:55:30.709Z,97.45
2017-09-20T03:56:30.701Z,97.36
2017-09-20T03:57:30.699Z,97.36
2017-09-20T03:58:30.679Z,97.64
2017-09-20T03:59:30.360Z,97.55
2017-09-20T04:00:30.352Z,97.55
2017-09-20T04:01:30.340Z,97.55
2017-09-20T04:02:30.640Z,97.64
2017-09-20T04:03:30.322Z,97.45
2017-09-20T04:04:30.623Z,97.55
2017-09-20T04:05:30.300Z,97.36
2017-09-20T04:06:30.601Z,97.45
2017-09-20T04:07:30.282Z,97.64
2017-09-20T04:08:30.586Z,97.74
2017-09-20T04:09:30.573Z,97.55
2017-09-20T04:10:30.252Z,97.64
2017-09-20T04:11:30.553Z,97.27
2017-09-20T04:12:30.541Z,97.36
2017-09-20T04:13:30.536Z,97.5
2017-09-20T04:14:30.530Z,97.55
2017-09-20T04:15:30.514Z,97.45
2017-09-20T04:16:30.501Z,97.55
2017-09-20T04:17:30.499Z,97.5
2017-09-20T04:18:30.482Z,97.5
2017-09-20T04:19:30.477Z,97.79
2017-09-20T04:20:30.463Z,97.88
2017-09-20T04:21:30.452Z,98.08
2017-09-20T04:22:30.446Z,97.88
2017-09-20T04:23:30.435Z,98.08
2017-09-20T04:24:30.424Z,97.79
2017-09-20T04:25:30.415Z,97.79
2017-09-20T04:26:30.406Z,97.69
2017-09-20T04:27:30.397Z,97.69
2017-09-20T04:28:30.387Z,97.79
2017-09-20T04:29:30.377Z,97.88
2017-09-20T04:30:30.367Z,97.84
2017-09-20T04:31:30.362Z,97.84
2017-09-20T04:32:30.348Z,98.03
2017-09-20T04:33:30.340Z,97.93
2017-09-20T04:34:30.328Z,97.65
2017-09-20T04:35:30.316Z,97.65
2017-09-20T04:36:30.310Z,97.36
2017-09-20T04:37:30.300Z,97.27
2017-09-20T04:38:30.290Z,97.17
2017-09-20T04:39:30.279Z,97.36
2017-09-20T04:40:30.270Z,97.6
2017-09-20T04:41:30.261Z,97.51
2017-09-20T04:42:30.262Z,97.41
2017-09-20T04:43:30.247Z,97.6
2017-09-20T04:44:30.233Z,97.6
2017-09-20T04:45:30.222Z,97.31
2017-09-20T04:46:30.212Z,96.75
2017-09-20T04:47:30.209Z,96.75
2017-09-20T04:48:30.198Z,96.94
2017-09-20T04:49:30.185Z,97.03
2017-09-20T04:50:30.177Z,97.13
2017-09-20T04:51:30.171Z,97.17
2017-09-20T04:52:30.166Z,96.98
2017-09-20T04:53:30.153Z,96.98
2017-09-20T04:54:29.837Z,97.08
2017-09-20T04:55:30.143Z,96.7
2017-09-20T04:56:30.133Z,96.8
2017-09-20T04:57:30.118Z,97.08
2017-09-20T04:58:30.110Z,97.17
2017-09-20T04:59:30.103Z,96.8
2017-09-20T05:00:30.091Z,96.46
2017-09-20T05:01:30.083Z,96.6
2017-09-20T05:02:30.075Z,96.27
2017-09-20T05:03:30.075Z,96.46
2017-09-20T05:04:30.055Z,96.46
2017-09-20T05:05:30.049Z,96.46
2017-09-20T05:06:29.732Z,96.08
2017-09-20T05:07:30.032Z,96.56
2017-09-20T05:08:30.021Z,95.98
2017-09-20T05:09:30.017Z,95.98
2017-09-20T05:10:30.003Z,96.08
2017-09-20T05:11:29.996Z,96.08
2017-09-20T05:12:29.987Z,95.98
2017-09-20T05:13:29.981Z,96.17
2017-09-20T05:14:29.974Z,96.17
2017-09-20T05:15:29.967Z,95.84
2017-09-20T05:16:29.956Z,95.75
2017-09-20T05:17:29.946Z,96.03
2017-09-20T05:18:29.939Z,96.03
2017-09-20T05:19:29.623Z,95.84
2017-09-20T05:20:29.924Z,96.32
2017-09-20T05:21:29.917Z,95.65
2017-09-20T05:22:29.907Z,95.56
2017-09-20T05:23:29.900Z,95.84
2017-09-20T05:24:29.888Z,95.46
2017-09-20T05:25:29.883Z,95.56
2017-09-20T05:26:29.878Z,95.75
2017-09-20T05:27:29.869Z,94.89
2017-09-20T05:28:29.550Z,95.37
2017-09-20T05:29:29.848Z,95.94
2017-09-20T05:30:29.840Z,95.65
2017-09-20T05:31:29.836Z,95.17
2017-09-20T05:32:29.829Z,95.75
2017-09-20T05:33:29.820Z,95.94
2017-09-20T05:34:29.817Z,94.98
2017-09-20T05:35:29.801Z,94.98
2017-09-20T05:36:29.486Z,95.03
2017-09-20T05:37:29.785Z,94.93
2017-09-20T05:38:29.781Z,95.22
2017-09-20T05:39:29.772Z,94.65
2017-09-20T05:40:29.763Z,95.32
2017-09-20T05:41:29.758Z,95.22
2017-09-20T05:42:29.749Z,94.65
2017-09-20T05:43:29.739Z,94.56
2017-09-20T05:44:29.733Z,94.74
2017-09-20T05:45:29.726Z,94.65
2017-09-20T05:46:29.411Z,94.65
2017-09-20T05:47:29.709Z,94.36
2017-09-20T05:48:29.701Z,94.56
2017-09-20T05:49:29.697Z,94.56
2017-09-20T05:50:29.687Z,94.46
2017-09-20T05:51:29.681Z,94.07
2017-09-20T05:52:29.673Z,94.17
2017-09-20T05:53:29.665Z,94.46
2017-09-20T05:54:29.660Z,94.07
2017-09-20T05:55:29.651Z,93.98
2017-09-20T05:56:29.645Z,94.17
2017-09-20T05:57:29.640Z,93.98
2017-09-20T05:58:29.631Z,93.88
2017-09-20T05:59:29.622Z,93.84
2017-09-20T06:00:29.615Z,94.03
2017-09-20T06:01:29.643Z,94.12
2017-09-20T06:02:29.600Z,94.12
2017-09-20T06:03:29.592Z,93.84
2017-09-20T06:04:29.583Z,93.46
2017-09-20T06:05:29.579Z,93.65
2017-09-20T06:06:29.259Z,93.26
2017-09-20T06:07:29.254Z,93.46
2017-09-20T06:08:29.247Z,92.97
2017-09-20T06:09:29.552Z,93.65
2017-09-20T06:10:29.542Z,93.84
2017-09-20T06:11:29.227Z,93.55
2017-09-20T06:12:29.525Z,93.55
2017-09-20T06:13:29.210Z,93.31
2017-09-20T06:14:29.205Z,93.17
2017-09-20T06:15:29.505Z,93.26
2017-09-20T06:16:29.191Z,93.65
2017-09-20T06:17:29.183Z,93.7
2017-09-20T06:18:29.488Z,93.5
2017-09-20T06:19:29.478Z,93.12
2017-09-20T06:20:29.472Z,93.12
2017-09-20T06:21:29.156Z,92.64
2017-09-20T06:22:29.456Z,92.45
2017-09-20T06:23:29.142Z,92.55
2017-09-20T06:24:29.133Z,92.64
2017-09-20T06:25:29.126Z,92.55
2017-09-20T06:26:29.429Z,92.36
2017-09-20T06:27:29.114Z,92.26
2017-09-20T06:28:29.108Z,92.64
2017-09-20T06:29:29.102Z,92.74
2017-09-20T06:30:29.096Z,92.21
2017-09-20T06:31:29.088Z,92.07
2017-09-20T06:32:29.081Z,92.11
2017-09-20T06:33:29.074Z,92.07
2017-09-20T06:34:29.067Z,92.07
2017-09-20T06:35:29.370Z,92.21
2017-09-20T06:36:29.054Z,92.07
2017-09-20T06:37:29.354Z,92.26
2017-09-20T06:38:29.354Z,91.45
2017-09-20T06:39:29.034Z,91.64
2017-09-20T06:40:29.028Z,91.83
2017-09-20T06:41:29.335Z,91.64
2017-09-20T06:42:29.322Z,91.64
2017-09-20T06:43:29.317Z,92.02
2017-09-20T06:44:29.308Z,91.16
2017-09-20T06:45:28.996Z,91.35
2017-09-20T06:46:29.297Z,91.35
2017-09-20T06:47:28.980Z,91.45
2017-09-20T06:48:29.288Z,91.54
2017-09-20T06:49:28.968Z,91.35
2017-09-20T06:50:28.963Z,91.64
2017-09-20T06:51:28.955Z,91.74
2017-09-20T06:52:28.949Z,91.45
2017-09-20T06:53:28.943Z,90.97
2017-09-20T06:54:28.936Z,91.06
2017-09-20T06:55:28.930Z,91.11
2017-09-20T06:56:28.923Z,90.92
2017-09-20T06:57:29.227Z,90.25
2017-09-20T06:58:29.223Z,90.73
2017-09-20T06:59:28.906Z,89.96
2017-09-20T07:00:28.897Z,89.96
2017-09-20T07:01:29.200Z,89.67
2017-09-20T07:02:29.449Z,89.34
2017-09-20T07:03:29.192Z,89.53
2017-09-20T07:04:29.181Z,89.34
2017-09-20T07:05:29.177Z,89.53
2017-09-20T07:06:29.171Z,89.34
2017-09-20T07:07:29.166Z,89.34
2017-09-20T07:08:29.161Z,89.34
2017-09-20T07:09:29.155Z,89.43
2017-09-20T07:10:29.150Z,89.62
2017-09-20T07:11:29.145Z,89.53
2017-09-20T07:12:29.140Z,89.43
2017-09-20T07:13:29.133Z,89.15
2017-09-20T07:14:28.819Z,89.91
2017-09-20T07:15:29.125Z,89.05
2017-09-20T07:16:29.115Z,88.76
2017-09-20T07:17:29.115Z,89.19
2017-09-20T07:18:29.111Z,88.9
2017-09-20T07:19:29.099Z,89.09
2017-09-20T07:20:29.094Z,88.13
2017-09-20T07:21:29.088Z,88.18
2017-09-20T07:22:29.085Z,87.84
2017-09-20T07:23:29.080Z,87.37
2017-09-20T07:24:29.082Z,86.93
2017-09-20T07:25:29.074Z,87.02
2017-09-20T07:26:29.071Z,86.01
2017-09-20T07:27:29.074Z,86.21
2017-09-20T07:28:29.066Z,85.67
2017-09-20T07:29:29.060Z,85.67
2017-09-20T07:30:29.057Z,85.48
2017-09-20T07:31:29.058Z,85.1
2017-09-20T07:32:29.053Z,84.04
2017-09-20T07:33:29.047Z,84.33
2017-09-20T07:34:29.049Z,84.52
2017-09-20T07:35:28.734Z,84.91
2017-09-20T07:36:29.041Z,85
2017-09-20T07:37:29.039Z,84.91
2017-09-20T07:38:28.728Z,84.77
2017-09-20T07:39:29.038Z,85.25
2017-09-20T07:40:29.032Z,85.63
2017-09-20T07:41:29.026Z,85.53
2017-09-20T07:42:29.022Z,85.63
2017-09-20T07:43:29.233Z,85.44
2017-09-20T07:44:29.021Z,85.67
2017-09-20T07:45:29.019Z,85.1
2017-09-20T07:46:28.708Z,84.91
2017-09-20T07:47:29.017Z,85
2017-09-20T07:48:29.011Z,84.81
2017-09-20T07:49:29.009Z,84.33
2017-09-20T07:50:29.010Z,84.18
2017-09-20T07:51:29.008Z,84.18
2017-09-20T07:52:29.007Z,83.31
2017-09-20T07:53:29.004Z,82.74
2017-09-20T07:54:29.005Z,83.12
2017-09-20T07:55:29.005Z,83.03
2017-09-20T07:56:29.037Z,83.31
2017-09-20T07:57:28.695Z,82.78
2017-09-20T07:58:28.693Z,82.4
2017-09-20T07:59:29.003Z,82.49
2017-09-20T08:00:29.002Z,82.78
2017-09-20T08:01:29.002Z,82.49
2017-09-20T08:02:29.001Z,83.26
2017-09-20T08:03:28.694Z,82.87
2017-09-20T08:04:29.002Z,82.54
2017-09-20T08:05:28.694Z,82.87
2017-09-20T08:06:29.001Z,82.59
2017-09-20T08:07:29.001Z,82.78
2017-09-20T08:08:29.000Z,83.16
2017-09-20T08:09:28.999Z,83.6
2017-09-20T08:10:29.000Z,84.08
2017-09-20T08:11:28.996Z,83.6
2017-09-20T08:12:28.995Z,83.6
2017-09-20T08:13:28.995Z,84.37
2017-09-20T08:14:28.685Z,83.98
2017-09-20T08:15:28.991Z,84.56
2017-09-20T08:16:28.988Z,84.75
2017-09-20T08:17:28.984Z,84.75
2017-09-20T08:18:28.676Z,84.85
2017-09-20T08:19:28.980Z,84.81
2017-09-20T08:20:28.980Z,85.38
2017-09-20T08:21:28.975Z,85.38
2017-09-20T08:22:28.977Z,85.38
2017-09-20T08:23:28.970Z,85.96
2017-09-20T08:24:28.967Z,86.63
2017-09-20T08:25:28.968Z,86.34
2017-09-20T08:26:28.977Z,86.15
2017-09-20T08:27:28.963Z,86.54
2017-09-20T08:28:28.956Z,86.34
2017-09-20T08:29:28.959Z,86.54
2017-09-20T08:30:28.953Z,86.34
2017-09-20T08:31:28.953Z,86.54
2017-09-20T08:32:28.943Z,86.34
2017-09-20T08:33:28.636Z,86.38
2017-09-20T08:34:28.943Z,85.81
2017-09-20T08:35:28.937Z,85.24
2017-09-20T08:36:28.932Z,85.33
2017-09-20T08:37:28.931Z,84.95
2017-09-20T08:38:28.927Z,84.22
2017-09-20T08:39:28.617Z,83.93
2017-09-20T08:40:28.614Z,84.22
2017-09-20T08:41:28.920Z,84.22
2017-09-20T08:42:28.916Z,84.03
2017-09-20T08:43:28.919Z,83.54
2017-09-20T08:44:28.605Z,84.12
2017-09-20T08:45:28.634Z,84.22
2017-09-20T08:46:28.907Z,84.31
2017-09-20T08:47:28.902Z,84.03
2017-09-20T08:48:28.903Z,83.59
2017-09-20T08:49:28.896Z,82.63
2017-09-20T08:50:28.587Z,82.92
2017-09-20T08:51:28.582Z,83.3
2017-09-20T08:52:28.889Z,83.2
2017-09-20T08:53:28.889Z,83.2
2017-09-20T08:54:28.574Z,82.73
2017-09-20T08:55:28.884Z,83.2
2017-09-20T08:56:28.881Z,82.73
2017-09-20T08:57:28.877Z,82.63
2017-09-20T08:58:28.872Z,82.78
2017-09-20T08:59:28.561Z,82.78
2017-09-20T09:00:28.870Z,83.36
2017-09-20T09:01:28.869Z,83.07
2017-09-20T09:02:28.864Z,83.45
2017-09-20T09:03:28.862Z,83.36
2017-09-20T09:04:28.549Z,83.07
2017-09-20T09:05:28.853Z,82.97
2017-09-20T09:06:28.854Z,83.16
2017-09-20T09:07:28.851Z,83.93
2017-09-20T09:08:28.538Z,83.54
2017-09-20T09:09:28.843Z,83.41
2017-09-20T09:10:28.842Z,84.22
2017-09-20T09:11:28.836Z,84.12
2017-09-20T09:12:28.530Z,83.8
2017-09-20T09:13:28.831Z,84.41
2017-09-20T09:14:28.831Z,84.66
2017-09-20T09:15:28.521Z,84.75
2017-09-20T09:16:28.818Z,85.14
2017-09-20T09:17:28.819Z,84.37
2017-09-20T09:18:28.507Z,83.45
2017-09-20T09:19:28.503Z,83.64
2017-09-20T09:20:28.499Z,83.36
2017-09-20T09:21:28.495Z,82.49
2017-09-20T09:22:28.495Z,83.16
2017-09-20T09:23:28.491Z,82.68
2017-09-20T09:24:28.485Z,82.3
2017-09-20T09:25:28.484Z,82.24
2017-09-20T09:26:28.791Z,82.15
2017-09-20T09:27:28.477Z,81.67
2017-09-20T09:28:28.784Z,81.04
2017-09-20T09:29:28.473Z,80.71
2017-09-20T09:30:28.778Z,80.17
2017-09-20T09:31:28.465Z,80.27
2017-09-20T09:32:28.769Z,79.88
2017-09-20T09:33:28.772Z,79.4
2017-09-20T09:34:28.766Z,78.73
2017-09-20T09:35:28.766Z,78.73
2017-09-20T09:36:28.758Z,79.02
2017-09-20T09:37:28.756Z,79.11
2017-09-20T09:38:28.755Z,79.02
2017-09-20T09:39:28.752Z,79.21
2017-09-20T09:40:28.752Z,79.3
2017-09-20T09:41:28.439Z,78.96
2017-09-20T09:42:28.745Z,78.19
2017-09-20T09:43:28.747Z,77.71
2017-09-20T09:44:28.740Z,77.81
2017-09-20T09:45:28.741Z,77.46
2017-09-20T09:46:28.736Z,77.23
2017-09-20T09:47:28.740Z,77.17
2017-09-20T09:48:28.731Z,76.4
2017-09-20T09:49:28.730Z,75.82
2017-09-20T09:50:28.726Z,73.99
2017-09-20T09:51:28.728Z,73.8
2017-09-20T09:52:28.722Z,73.36
2017-09-20T09:53:28.718Z,73.55
2017-09-20T09:54:28.719Z,73.36
2017-09-20T09:55:28.406Z,72.2
2017-09-20T09:56:28.406Z,70.66
2017-09-20T09:57:28.711Z,71.14
2017-09-20T09:58:28.710Z,71.72
2017-09-20T09:59:28.398Z,72.3
2017-09-20T10:00:28.398Z,72.01
2017-09-20T10:01:28.397Z,72.36
2017-09-20T10:02:28.393Z,72.17
2017-09-20T10:03:28.393Z,72.2
2017-09-20T10:04:28.391Z,71.81
2017-09-20T10:05:28.388Z,71.53
2017-09-20T10:06:28.694Z,71.34
2017-09-20T10:07:28.694Z,71.24
2017-09-20T10:08:28.382Z,70.86
2017-09-20T10:09:28.689Z,71.24
2017-09-20T10:10:28.379Z,70.66
2017-09-20T10:11:28.686Z,70.09
2017-09-20T10:12:28.375Z,69.41
2017-09-20T10:13:28.686Z,69.45
2017-09-20T10:14:28.372Z,68.58
2017-09-20T10:15:28.369Z,67.23
2017-09-20T10:16:28.678Z,68.29
2017-09-20T10:17:28.681Z,68.1
2017-09-20T10:18:28.671Z,67.33
2017-09-20T10:19:28.674Z,67.23
2017-09-20T10:20:28.671Z,67.61
2017-09-20T10:21:28.666Z,68.29
2017-09-20T10:22:28.669Z,68.29
2017-09-20T10:23:28.663Z,68.77
2017-09-20T10:24:28.666Z,68.77
2017-09-20T10:25:28.669Z,68.96
2017-09-20T10:26:28.661Z,68.96
2017-09-20T10:27:28.658Z,68.58
2017-09-20T10:28:28.662Z,68.1
2017-09-20T10:29:28.656Z,67.52
2017-09-20T10:30:28.654Z,67.71
2017-09-20T10:31:28.654Z,68.29
2017-09-20T10:32:28.649Z,68.84
2017-09-20T10:33:28.647Z,68.93
2017-09-20T10:34:28.649Z,69.41
2017-09-20T10:35:28.641Z,69.7
2017-09-20T10:36:28.642Z,70.76
2017-09-20T10:37:28.636Z,70.37
2017-09-20T10:38:28.638Z,70.43
2017-09-20T10:39:28.637Z,70.86
2017-09-20T10:40:28.633Z,71.11
2017-09-20T10:41:28.630Z,71.62
2017-09-20T10:42:28.627Z,71.62
2017-09-20T10:43:28.623Z,71.43
2017-09-20T10:44:28.623Z,71.34
2017-09-20T10:45:28.620Z,70.56
2017-09-20T10:46:28.314Z,70.28
2017-09-20T10:47:28.619Z,70.09
2017-09-20T10:48:28.657Z,69.6
2017-09-20T10:49:28.613Z,68.93
2017-09-20T10:50:28.623Z,69.06
2017-09-20T10:51:28.608Z,68.87
2017-09-20T10:52:28.608Z,68.58
2017-09-20T10:53:28.604Z,68.87
2017-09-20T10:54:28.602Z,68
2017-09-20T10:55:28.601Z,67.46
2017-09-20T10:56:28.601Z,66.97
2017-09-20T10:57:28.290Z,66.88
2017-09-20T10:58:28.593Z,66.91
2017-09-20T10:59:28.286Z,65.47
2017-09-20T11:00:28.592Z,65.85
2017-09-20T11:01:28.840Z,64.79
2017-09-20T11:02:28.590Z,64.4
2017-09-20T11:03:28.590Z,64.63
2017-09-20T11:04:28.598Z,64.69
2017-09-20T11:05:28.589Z,64.43
2017-09-20T11:06:28.584Z,63.47
2017-09-20T11:07:28.277Z,64.34
2017-09-20T11:08:28.591Z,64.82
2017-09-20T11:09:28.274Z,64.82
2017-09-20T11:10:28.583Z,64.92
2017-09-20T11:11:28.581Z,64.34
2017-09-20T11:12:28.615Z,64.05
2017-09-20T11:13:28.580Z,63.57
2017-09-20T11:14:28.270Z,63.28
2017-09-20T11:15:28.580Z,62.89
2017-09-20T11:16:28.578Z,61.93
2017-09-20T11:17:28.575Z,61.44
2017-09-20T11:18:28.573Z,61.16
2017-09-20T11:19:28.577Z,60
2017-09-20T11:20:28.576Z,59.32
2017-09-20T11:21:28.572Z,59.52
2017-09-20T11:22:28.573Z,60.45
2017-09-20T11:23:28.571Z,60.35
2017-09-20T11:24:28.572Z,60.45
2017-09-20T11:25:28.262Z,60.93
2017-09-20T11:26:28.572Z,61.48
2017-09-20T11:27:28.260Z,61.68
2017-09-20T11:28:28.257Z,61.68
2017-09-20T11:29:28.567Z,61.58
2017-09-20T11:30:28.565Z,61.48
2017-09-20T11:31:28.252Z,61.87
2017-09-20T11:32:28.503Z,61.48
2017-09-20T11:33:28.559Z,61.38
2017-09-20T11:34:28.250Z,61.41
2017-09-20T11:35:28.249Z,59.97
2017-09-20T11:36:28.557Z,58.14
2017-09-20T11:37:28.563Z,57.75
2017-09-20T11:38:28.554Z,58.33
2017-09-20T11:39:28.558Z,59
2017-09-20T11:40:28.552Z,59.75
2017-09-20T11:41:28.583Z,59.75
2017-09-20T11:42:28.554Z,60.03
2017-09-20T11:43:28.240Z,61.19
2017-09-20T11:44:28.548Z,61.19
2017-09-20T11:45:28.545Z,61.55
2017-09-20T11:46:28.557Z,62.51
2017-09-20T11:47:28.542Z,62.7
2017-09-20T11:48:28.540Z,62.9
2017-09-20T11:49:28.540Z,62.8
2017-09-20T11:50:28.540Z,62.99
2017-09-20T11:51:28.537Z,63.09
2017-09-20T11:52:28.534Z,63.18
2017-09-20T11:53:28.530Z,63.28
2017-09-20T11:54:28.566Z,63.09
2017-09-20T11:55:28.534Z,62.8
2017-09-20T11:56:28.533Z,62.12
2017-09-20T11:57:28.527Z,61.35
2017-09-20T11:58:28.215Z,62.03
2017-09-20T11:59:28.520Z,61.65
2017-09-20T12:00:28.522Z,61.35
2017-09-20T12:01:28.518Z,60.87
2017-09-20T12:02:28.211Z,61.35
2017-09-20T12:03:28.518Z,61.16
2017-09-20T12:04:28.518Z,60.39
2017-09-20T12:05:28.204Z,61.16
2017-09-20T12:06:28.204Z,61.13
2017-09-20T12:07:28.509Z,61.42
2017-09-20T12:08:28.202Z,61.42
2017-09-20T12:09:28.510Z,60.84
2017-09-20T12:10:28.197Z,61.22
2017-09-20T12:11:28.195Z,60.94
2017-09-20T12:12:28.508Z,60.94
2017-09-20T12:13:28.194Z,60.27
2017-09-20T12:14:28.499Z,59.69
2017-09-20T12:15:28.501Z,59.88
2017-09-20T12:16:28.185Z,59.88
2017-09-20T12:17:28.498Z,60.36
2017-09-20T12:18:28.492Z,60.42
2017-09-20T12:19:28.490Z,60.62
2017-09-20T12:20:28.488Z,61.1
2017-09-20T12:21:28.487Z,61.32
2017-09-20T12:22:28.173Z,61.04
2017-09-20T12:23:28.489Z,60.94
2017-09-20T12:24:28.481Z,61.13
2017-09-20T12:25:28.174Z,60.36
2017-09-20T12:26:28.475Z,59.88
2017-09-20T12:27:28.476Z,58.63
2017-09-20T12:28:28.474Z,57.18
2017-09-20T12:29:28.467Z,57.28
2017-09-20T12:30:28.466Z,57.02
2017-09-20T12:31:28.467Z,56.54
2017-09-20T12:32:28.466Z,56.15
2017-09-20T12:33:28.467Z,56.15
2017-09-20T12:34:28.457Z,55.48
2017-09-20T12:35:28.460Z,55
2017-09-20T12:36:28.458Z,54.52
2017-09-20T12:37:28.453Z,53.36
2017-09-20T12:38:28.455Z,53.65
2017-09-20T12:39:28.450Z,52.87
2017-09-20T12:40:28.143Z,52.69
2017-09-20T12:41:28.445Z,52.3
2017-09-20T12:42:28.136Z,51.07
2017-09-20T12:43:28.463Z,51.36
2017-09-20T12:44:28.440Z,51.72
2017-09-20T12:45:28.130Z,51.82
2017-09-20T12:46:28.130Z,52.33
2017-09-20T12:47:28.437Z,52.13
2017-09-20T12:48:28.440Z,52.61
2017-09-20T12:49:28.437Z,52.81
2017-09-20T12:50:28.127Z,53.67
2017-09-20T12:51:28.431Z,53.58
2017-09-20T12:52:28.441Z,54.25
2017-09-20T12:53:28.119Z,54.64
2017-09-20T12:54:28.120Z,54.42
2017-09-20T12:55:28.117Z,55